Time;durP1;ratioP1;P1;durP2;ratioP2;P2;SDS_P1;SDS_P2;PMS_P1;PMS_P2;Temp;Humidity;BMP_temperature;BMP_pressure;BME280_temperature;BME280_humidity;BME280_pressure;Samples;Min_cycle;Max_cycle;Signal;HPM_P1;HPM_P2
2021/11/20 00:02:15;;;;;;;64.30;32.50;;;7.60;99.90;;;;;;5074139;28;20036;-84
2021/11/20 00:04:42;;;;;;;62.78;32.47;;;7.60;99.90;;;;;;5072258;28;20035;-85
2021/11/20 00:07:08;;;;;;;49.47;29.00;;;7.70;99.90;;;;;;5072324;28;20032;-84
2021/11/20 00:09:34;;;;;;;40.20;25.83;;;7.70;99.90;;;;;;5073588;28;20025;-84
2021/11/20 00:12:07;;;;;;;31.20;22.38;;;7.70;99.90;;;;;;5073619;28;20386;-84
2021/11/20 00:14:33;;;;;;;30.55;22.50;;;7.80;99.90;;;;;;5072292;28;20041;-86
2021/11/20 00:17:01;;;;;;;26.52;19.65;;;7.80;99.90;;;;;;5073479;28;20027;-86
2021/11/20 00:19:29;;;;;;;28.33;20.83;;;7.80;99.90;;;;;;5072374;28;20035;-83
2021/11/20 00:22:03;;;;;;;29.20;21.73;;;7.80;99.90;;;;;;5056306;28;20029;-84
2021/11/20 00:24:31;;;;;;;28.33;20.65;;;7.90;99.90;;;;;;5074633;28;20032;-85
2021/11/20 00:27:00;;;;;;;28.23;21.48;;;7.90;99.90;;;;;;5074265;28;20485;-84
2021/11/20 00:29:37;;;;;;;26.65;20.13;;;7.90;99.90;;;;;;5073512;28;20056;-83
2021/11/20 00:32:04;;;;;;;26.48;19.63;;;7.90;99.90;;;;;;5057371;28;20029;-85
2021/11/20 00:34:32;;;;;;;28.75;21.33;;;7.90;99.90;;;;;;5077316;28;20033;-85
2021/11/20 00:36:58;;;;;;;29.40;21.20;;;7.90;99.90;;;;;;5059269;28;20024;-85
2021/11/20 00:39:29;;;;;;;35.38;22.45;;;7.90;99.90;;;;;;5059303;28;20078;-86
2021/11/20 00:41:55;;;;;;;28.98;21.10;;;7.90;99.90;;;;;;5075963;28;20032;-84
2021/11/20 00:44:22;;;;;;;26.70;19.58;;;7.90;99.90;;;;;;5075757;28;20077;-83
2021/11/20 00:46:49;;;;;;;32.17;22.08;;;7.90;99.90;;;;;;5081184;28;20043;-83
2021/11/20 00:49:20;;;;;;;31.35;21.50;;;7.90;99.90;;;;;;5088031;28;20048;-84
2021/11/20 00:51:46;;;;;;;28.35;20.73;;;7.90;99.90;;;;;;5082539;28;20489;-83
2021/11/20 00:54:12;;;;;;;31.17;22.00;;;7.90;99.90;;;;;;5079136;28;20039;-84
2021/11/20 00:56:38;;;;;;;36.72;23.52;;;8.00;99.90;;;;;;5076856;28;20047;-84
2021/11/20 00:59:05;;;;;;;37.15;24.52;;;8.00;99.90;;;;;;5059015;28;20024;-85
2021/11/20 01:01:59;;;;;;;31.52;21.08;;;8.00;99.90;;;;;;5076832;28;20034;-83
2021/11/20 01:04:26;;;;;;;34.92;21.70;;;8.00;99.90;;;;;;5082591;28;20438;-83
2021/11/20 01:06:53;;;;;;;28.02;20.02;;;8.00;99.90;;;;;;5079055;28;20032;-84
2021/11/20 01:09:25;;;;;;;27.65;19.90;;;8.00;99.90;;;;;;5077126;28;20024;-83
2021/11/20 01:12:02;;;;;;;25.02;18.90;;;8.10;99.90;;;;;;5078850;28;20028;-84
2021/11/20 01:14:29;;;;;;;26.33;19.15;;;8.10;99.90;;;;;;5097251;28;20043;-83
2021/11/20 01:16:56;;;;;;;25.00;17.95;;;8.10;99.90;;;;;;5078984;28;20063;-85
2021/11/20 01:19:23;;;;;;;26.23;18.88;;;8.10;99.90;;;;;;5078004;28;20421;-81
2021/11/20 01:21:51;;;;;;;26.98;18.45;;;8.10;99.90;;;;;;5095180;28;20059;-83
2021/11/20 01:24:17;;;;;;;24.05;18.23;;;8.10;99.90;;;;;;5095137;28;20024;-83
2021/11/20 01:26:43;;;;;;;27.83;18.20;;;8.20;99.90;;;;;;5096574;28;20024;-83
2021/11/20 01:29:12;;;;;;;24.63;17.98;;;8.20;99.90;;;;;;5095356;28;20028;-83
2021/11/20 01:31:40;;;;;;;30.48;18.95;;;8.20;99.90;;;;;;5094937;28;20115;-83
2021/11/20 01:34:07;;;;;;;33.88;19.77;;;8.20;99.90;;;;;;5096833;28;20073;-82
2021/11/20 01:36:36;;;;;;;25.77;17.55;;;8.20;99.90;;;;;;5095020;28;20060;-84
2021/11/20 01:39:10;;;;;;;23.02;16.98;;;8.20;99.90;;;;;;5094872;28;20073;-84
2021/11/20 01:41:38;;;;;;;26.60;17.38;;;8.20;99.90;;;;;;5100660;28;20032;-83
2021/11/20 01:44:17;;;;;;;26.05;17.98;;;8.20;99.90;;;;;;5108515;28;20531;-83
2021/11/20 01:46:50;;;;;;;26.98;17.35;;;8.20;99.90;;;;;;5102441;28;20101;-84
2021/11/20 01:49:27;;;;;;;29.65;19.75;;;8.20;99.90;;;;;;5094875;28;20166;-84
2021/11/20 01:51:58;;;;;;;28.10;19.58;;;8.20;99.90;;;;;;5093115;28;20090;-83
2021/11/20 01:54:50;;;;;;;25.73;18.05;;;8.20;99.90;;;;;;5102011;28;20032;-84
2021/11/20 01:57:38;;;;;;;29.17;19.60;;;8.30;99.90;;;;;;5095051;28;20036;-84
2021/11/20 02:00:18;;;;;;;34.35;20.77;;;8.30;99.90;;;;;;5077960;28;20062;-84
2021/11/20 02:03:10;;;;;;;40.38;22.02;;;8.20;99.90;;;;;;5095321;28;20511;-86
2021/11/20 02:05:58;;;;;;;36.35;21.00;;;8.20;99.90;;;;;;5094355;28;20057;-86
2021/11/20 02:08:41;;;;;;;39.17;22.52;;;8.20;99.90;;;;;;5095861;28;20035;-83
2021/11/20 02:11:19;;;;;;;29.83;18.45;;;8.20;99.90;;;;;;5077401;28;20037;-84
2021/11/20 02:13:46;;;;;;;29.58;19.10;;;8.20;99.90;;;;;;5095806;28;20040;-83
2021/11/20 02:16:17;;;;;;;29.15;18.25;;;8.20;99.90;;;;;;5095532;28;20028;-86
2021/11/20 02:18:53;;;;;;;30.95;19.33;;;8.20;99.90;;;;;;5095576;28;20051;-84
2021/11/20 02:21:40;;;;;;;29.83;19.35;;;8.20;99.90;;;;;;5101044;28;20028;-85
2021/11/20 02:24:05;;;;;;;29.58;18.40;;;8.20;99.90;;;;;;5093840;28;20122;-85
2021/11/20 02:26:31;;;;;;;32.97;19.63;;;8.20;99.90;;;;;;5094334;28;20078;-84
2021/11/20 02:29:00;;;;;;;29.35;18.40;;;8.20;99.90;;;;;;5094064;28;20063;-85
2021/11/20 02:31:26;;;;;;;23.98;17.23;;;8.30;99.90;;;;;;5095015;28;20476;-85
2021/11/20 02:33:52;;;;;;;21.83;16.08;;;8.30;99.90;;;;;;5094416;28;20055;-85
2021/11/20 02:36:21;;;;;;;23.75;16.70;;;8.30;99.90;;;;;;5094214;28;20114;-85
2021/11/20 02:39:17;;;;;;;20.38;15.10;;;8.30;99.90;;;;;;5106146;28;20081;-83
2021/11/20 02:41:46;;;;;;;22.35;15.95;;;8.40;99.90;;;;;;5101632;28;20035;-91
2021/11/20 02:44:14;;;;;;;21.75;15.95;;;8.40;99.90;;;;;;5077131;28;20024;-85
2021/11/20 02:46:47;;;;;;;23.58;18.30;;;8.40;99.90;;;;;;5093780;28;20480;-84
2021/11/20 02:49:13;;;;;;;22.67;17.55;;;8.40;99.90;;;;;;5095008;28;20032;-84
2021/11/20 02:51:48;;;;;;;23.35;18.85;;;8.40;99.90;;;;;;5095050;28;20062;-85
2021/11/20 02:54:17;;;;;;;22.58;18.70;;;8.40;99.90;;;;;;5095095;28;20107;-85
2021/11/20 02:56:51;;;;;;;20.60;16.92;;;8.40;99.90;;;;;;5093632;28;20074;-85
2021/11/20 02:59:17;;;;;;;20.98;15.80;;;8.50;99.90;;;;;;5064201;28;20158;-85
2021/11/20 03:01:45;;;;;;;16.75;14.32;;;8.50;99.90;;;;;;5074301;28;20066;-84
2021/11/20 03:04:15;;;;;;;17.70;13.20;;;8.50;99.90;;;;;;5074959;28;20052;-85
2021/11/20 03:06:41;;;;;;;19.02;14.48;;;8.50;99.90;;;;;;5056963;28;20537;-83
2021/11/20 03:09:10;;;;;;;19.98;14.13;;;8.50;99.90;;;;;;5056976;28;20115;-84
2021/11/20 03:11:36;;;;;;;19.88;15.43;;;8.50;99.90;;;;;;5074411;28;20111;-86
2021/11/20 03:14:07;;;;;;;17.27;14.98;;;8.50;99.90;;;;;;5056114;28;20442;-86
2021/11/20 03:16:35;;;;;;;21.83;17.40;;;8.50;99.90;;;;;;5056835;28;20028;-86
2021/11/20 03:19:01;;;;;;;21.38;17.77;;;8.60;99.90;;;;;;5074029;28;20048;-85
2021/11/20 03:21:27;;;;;;;23.65;15.90;;;8.60;99.90;;;;;;5056341;28;20032;-85
2021/11/20 03:23:55;;;;;;;16.67;13.70;;;8.60;99.90;;;;;;5056231;28;20024;-86
2021/11/20 03:26:21;;;;;;;16.40;11.88;;;8.60;99.90;;;;;;5074270;28;20104;-84
2021/11/20 03:28:47;;;;;;;15.38;12.05;;;8.70;99.90;;;;;;5055863;28;20111;-85
2021/11/20 03:31:13;;;;;;;16.75;11.98;;;8.70;99.90;;;;;;5074179;28;20025;-85
2021/11/20 03:33:39;;;;;;;14.40;11.25;;;8.70;99.90;;;;;;5065929;28;20033;-86
2021/11/20 03:36:05;;;;;;;15.50;11.00;;;8.70;99.90;;;;;;5067101;28;20033;-82
2021/11/20 03:38:31;;;;;;;14.77;10.82;;;8.80;99.90;;;;;;5060640;28;20032;-85
2021/11/20 03:40:57;;;;;;;16.48;11.57;;;8.80;99.90;;;;;;5076927;28;20520;-85
2021/11/20 03:43:23;;;;;;;16.20;11.30;;;8.80;99.90;;;;;;5056806;28;20108;-86
2021/11/20 03:45:50;;;;;;;15.00;11.05;;;8.90;99.90;;;;;;5073933;28;20070;-83
2021/11/20 03:48:16;;;;;;;16.13;11.82;;;8.90;99.90;;;;;;5055908;28;20120;-87
2021/11/20 03:50:44;;;;;;;16.42;12.05;;;8.90;99.90;;;;;;5055849;28;20111;-86
2021/11/20 03:53:10;;;;;;;16.40;11.82;;;8.90;99.90;;;;;;5073851;28;20090;-87
2021/11/20 03:55:40;;;;;;;16.77;13.07;;;8.90;99.90;;;;;;5055795;28;20434;-85
2021/11/20 03:58:07;;;;;;;18.92;13.93;;;9.00;99.90;;;;;;5055975;28;20355;-86
2021/11/20 04:00:37;;;;;;;16.63;13.23;;;9.00;99.90;;;;;;5055956;28;20028;-85
2021/11/20 04:03:03;;;;;;;21.95;17.55;;;9.00;99.90;;;;;;5073851;28;20044;-86
2021/11/20 04:05:32;;;;;;;24.05;18.95;;;9.00;99.90;;;;;;5055935;28;20033;-85
2021/11/20 04:07:58;;;;;;;22.83;19.10;;;9.10;99.90;;;;;;5060476;28;20067;-86
2021/11/20 04:10:24;;;;;;;18.10;14.82;;;9.10;99.90;;;;;;5077754;28;20032;-85
2021/11/20 04:12:50;;;;;;;16.52;13.55;;;9.10;99.90;;;;;;5059646;28;20050;-86
2021/11/20 04:15:20;;;;;;;16.85;14.07;;;9.10;99.90;;;;;;5077461;28;20060;-86
2021/11/20 04:17:45;;;;;;;16.80;14.93;;;9.10;99.90;;;;;;5059350;28;20190;-84
2021/11/20 04:20:16;;;;;;;20.55;17.88;;;9.20;99.90;;;;;;5077807;28;20111;-85
2021/11/20 04:22:43;;;;;;;21.73;17.98;;;9.20;99.90;;;;;;5077497;28;20031;-85
2021/11/20 04:25:11;;;;;;;22.08;19.67;;;9.30;99.90;;;;;;5078131;28;20027;-85
2021/11/20 04:27:37;;;;;;;20.73;18.52;;;9.30;99.90;;;;;;5061954;28;20133;-87
2021/11/20 04:30:06;;;;;;;20.98;17.52;;;9.30;99.90;;;;;;5071725;28;20021;-86
2021/11/20 04:32:32;;;;;;;21.38;19.17;;;9.40;99.90;;;;;;5083825;28;20056;-86
2021/11/20 04:34:57;;;;;;;19.95;17.55;;;9.40;99.90;;;;;;5059593;28;20063;-88
2021/11/20 04:37:23;;;;;;;20.20;16.98;;;9.40;99.90;;;;;;5077256;28;20108;-88
2021/11/20 04:39:49;;;;;;;18.52;14.52;;;9.50;99.90;;;;;;5077157;28;20059;-86
2021/11/20 04:42:16;;;;;;;17.15;14.60;;;9.50;99.90;;;;;;5059128;28;20493;-86
2021/11/20 04:44:42;;;;;;;16.70;12.52;;;9.60;99.90;;;;;;5059126;28;20024;-84
2021/11/20 04:47:08;;;;;;;14.32;11.35;;;9.60;99.90;;;;;;5072403;28;20071;-85
2021/11/20 04:49:35;;;;;;;13.32;10.45;;;9.70;99.90;;;;;;5096043;28;20028;-84
2021/11/20 04:52:00;;;;;;;14.07;9.95;;;9.70;99.90;;;;;;5097347;28;20027;-84
2021/11/20 04:54:26;;;;;;;13.88;10.38;;;9.70;99.90;;;;;;5108041;28;20016;-85
2021/11/20 04:56:52;;;;;;;14.40;10.77;;;9.80;99.90;;;;;;5098835;28;20062;-84
2021/11/20 04:59:18;;;;;;;13.07;9.73;;;9.80;99.90;;;;;;5097446;28;20024;-87
2021/11/20 05:01:44;;;;;;;14.13;10.02;;;9.80;99.90;;;;;;5095484;28;20024;-86
2021/11/20 05:04:09;;;;;;;12.68;9.50;;;9.90;99.90;;;;;;5096998;28;20108;-87
2021/11/20 05:06:35;;;;;;;12.43;9.30;;;9.90;99.90;;;;;;5096537;28;20024;-85
2021/11/20 05:09:01;;;;;;;13.10;9.80;;;9.90;99.90;;;;;;5078701;28;20024;-86
2021/11/20 05:11:29;;;;;;;12.45;9.07;;;9.90;99.90;;;;;;5095432;28;20024;-86
2021/11/20 05:13:56;;;;;;;12.45;9.57;;;9.90;99.90;;;;;;5095755;28;20122;-86
2021/11/20 05:16:22;;;;;;;12.88;8.88;;;10.00;99.90;;;;;;5095477;28;20462;-85
2021/11/20 05:18:48;;;;;;;11.38;8.40;;;9.90;99.90;;;;;;5097519;28;20053;-89
2021/11/20 05:21:15;;;;;;;12.65;9.02;;;10.00;99.90;;;;;;5097188;28;20032;-85
2021/11/20 05:23:45;;;;;;;12.25;8.90;;;10.00;99.90;;;;;;5100478;28;20031;-86
2021/11/20 05:26:12;;;;;;;12.23;9.15;;;10.00;99.90;;;;;;5089751;28;20432;-84
2021/11/20 05:28:43;;;;;;;12.15;9.27;;;10.10;99.90;;;;;;5101481;28;20032;-88
2021/11/20 05:31:09;;;;;;;13.30;9.65;;;10.10;99.90;;;;;;5097060;28;20480;-88
2021/11/20 05:33:38;;;;;;;13.63;10.02;;;10.10;99.90;;;;;;5096382;28;20068;-88
2021/11/20 05:36:05;;;;;;;13.45;9.30;;;10.20;99.90;;;;;;5096488;28;20020;-87
2021/11/20 05:38:32;;;;;;;10.80;8.48;;;10.20;99.90;;;;;;5096495;28;20174;-88
2021/11/20 05:40:58;;;;;;;12.15;7.57;;;10.20;99.90;;;;;;5096509;28;20071;-89
2021/11/20 05:43:24;;;;;;;10.75;7.90;;;10.30;99.90;;;;;;5075857;28;20023;-86
2021/11/20 05:46:02;;;;;;;8.70;6.70;;;10.30;99.90;;;;;;5075230;28;20020;-88
2021/11/20 05:48:27;;;;;;;8.35;6.10;;;10.40;99.90;;;;;;5077965;28;20664;-83
2021/11/20 05:50:53;;;;;;;8.85;6.55;;;10.40;99.90;;;;;;5073770;28;20035;-86
2021/11/20 05:53:22;;;;;;;9.80;7.20;;;10.40;99.90;;;;;;5073858;28;20020;-89
2021/11/20 05:55:50;;;;;;;9.45;6.00;;;10.50;99.90;;;;;;5073879;28;20429;-82
2021/11/20 05:58:17;;;;;;;8.40;6.40;;;10.50;99.90;;;;;;5073526;28;20024;-89
2021/11/20 06:00:47;;;;;;;9.52;6.15;;;10.60;99.90;;;;;;5075101;28;20028;-90
2021/11/20 06:03:16;;;;;;;8.45;6.18;;;10.70;99.90;;;;;;5089970;28;20466;-88
2021/11/20 06:05:44;;;;;;;9.00;5.95;;;10.60;99.90;;;;;;5087863;28;20370;-91
2021/11/20 06:08:11;;;;;;;8.48;5.68;;;10.70;99.90;;;;;;5084880;28;20049;-88
2021/11/20 06:10:38;;;;;;;8.52;6.28;;;10.70;99.90;;;;;;5100312;28;20039;-84
2021/11/20 06:13:09;;;;;;;7.35;5.55;;;10.70;99.90;;;;;;5085528;28;20025;-88
2021/11/20 06:15:36;;;;;;;7.57;5.50;;;10.80;99.90;;;;;;5073922;28;20474;-89
2021/11/20 06:18:05;;;;;;;6.45;4.63;;;10.80;99.90;;;;;;5087940;28;20048;-87
2021/11/20 06:20:31;;;;;;;7.30;5.03;;;10.90;99.90;;;;;;5094263;28;20059;-88
2021/11/20 06:22:57;;;;;;;6.70;4.95;;;10.90;99.90;;;;;;5087322;28;20042;-88
2021/11/20 06:25:24;;;;;;;7.25;5.32;;;10.90;99.90;;;;;;5081531;28;20027;-89
2021/11/20 06:27:51;;;;;;;17.65;12.05;;;10.90;99.90;;;;;;5087262;28;20016;-88
2021/11/20 06:30:21;;;;;;;7.30;4.95;;;11.00;99.90;;;;;;5086026;28;20116;-90
2021/11/20 06:32:47;;;;;;;5.90;4.78;;;11.10;99.90;;;;;;5084987;28;20377;-84
2021/11/20 06:35:18;;;;;;;6.18;4.90;;;11.10;99.90;;;;;;5083008;28;20109;-83
2021/11/20 06:37:45;;;;;;;6.85;4.80;;;11.20;99.90;;;;;;5074812;28;20048;-78
2021/11/20 06:40:16;;;;;;;8.13;5.22;;;11.20;99.90;;;;;;5075770;28;20485;-77
2021/11/20 06:42:43;;;;;;;7.68;5.18;;;11.20;99.90;;;;;;5057304;28;20036;-80
2021/11/20 06:45:12;;;;;;;7.63;5.93;;;11.30;99.90;;;;;;5076712;28;20029;-80
2021/11/20 06:47:37;;;;;;;7.93;5.57;;;11.30;99.90;;;;;;5058523;28;20035;-80
2021/11/20 06:50:05;;;;;;;7.78;5.15;;;11.30;99.90;;;;;;5058179;28;20115;-80
2021/11/20 06:52:30;;;;;;;7.07;4.95;;;11.40;99.90;;;;;;5074612;28;20028;-77
2021/11/20 06:54:56;;;;;;;7.15;4.97;;;11.40;99.90;;;;;;5056766;28;20372;-78
2021/11/20 07:00:26;;;;;;;9.23;6.30;;;11.50;99.90;;;;;;5086137;28;20023;-79
2021/11/20 07:03:07;;;;;;;7.15;4.80;;;11.60;99.90;;;;;;5081139;28;20028;-77
2021/11/20 07:05:41;;;;;;;6.18;4.28;;;11.70;99.90;;;;;;5074218;28;20078;-76
2021/11/20 07:08:08;;;;;;;6.97;4.57;;;11.80;99.90;;;;;;5074610;28;20028;-75
2021/11/20 07:10:34;;;;;;;8.23;5.57;;;11.90;99.90;;;;;;5057274;28;20052;-74
2021/11/20 07:13:01;;;;;;;7.45;5.50;;;12.10;99.90;;;;;;5081991;28;20025;-82
2021/11/20 07:15:28;;;;;;;11.30;6.95;;;12.20;99.90;;;;;;5075371;28;20115;-86
2021/11/20 07:17:55;;;;;;;10.68;6.88;;;12.40;99.90;;;;;;5086367;28;20063;-84
2021/11/20 07:20:27;;;;;;;8.05;5.80;;;12.50;99.90;;;;;;5067702;28;20021;-86
2021/11/20 07:22:54;;;;;;;7.95;5.50;;;12.60;99.90;;;;;;5079394;28;20386;-85
2021/11/20 07:25:21;;;;;;;7.05;5.18;;;12.70;99.90;;;;;;5062614;28;20024;-86
2021/11/20 07:27:47;;;;;;;7.40;5.75;;;12.80;99.30;;;;;;5085040;28;20032;-87
2021/11/20 07:30:16;;;;;;;7.22;5.28;;;12.90;98.60;;;;;;5058579;28;20469;-80
2021/11/20 07:32:42;;;;;;;9.45;4.72;;;13.10;98.30;;;;;;5055141;28;20028;-79
2021/11/20 07:35:10;;;;;;;6.47;4.18;;;13.20;96.70;;;;;;5073788;28;20455;-85
2021/11/20 07:37:38;;;;;;;6.40;4.28;;;13.30;96.10;;;;;;5056800;28;20044;-81
2021/11/20 07:40:07;;;;;;;6.72;4.43;;;13.40;96.20;;;;;;5076288;28;20024;-86
2021/11/20 07:42:33;;;;;;;5.65;4.35;;;13.60;94.30;;;;;;5081729;28;20032;-82
2021/11/20 07:45:02;;;;;;;8.05;4.20;;;13.70;94.10;;;;;;5100873;28;20024;-81
2021/11/20 07:47:29;;;;;;;7.63;4.20;;;13.90;92.10;;;;;;5080918;28;20039;-85
2021/11/20 07:49:55;;;;;;;8.55;4.80;;;13.80;91.70;;;;;;5081039;28;20614;-86
2021/11/20 07:52:21;;;;;;;7.75;4.43;;;13.90;91.50;;;;;;5078251;28;20062;-85
2021/11/20 07:54:47;;;;;;;7.10;4.45;;;14.00;90.70;;;;;;5097267;28;20067;-85
2021/11/20 07:57:13;;;;;;;6.70;3.63;;;14.00;90.20;;;;;;5076473;28;20024;-85
2021/11/20 07:59:39;;;;;;;6.90;3.75;;;14.00;89.80;;;;;;5079436;28;20388;-84
2021/11/20 08:02:07;;;;;;;5.50;3.45;;;14.40;91.50;;;;;;5096771;28;20066;-85
2021/11/20 08:04:36;;;;;;;7.47;3.67;;;15.40;90.50;;;;;;5099046;28;20035;-86
2021/11/20 08:07:03;;;;;;;5.47;3.22;;;16.50;86.30;;;;;;5079657;28;20025;-83
2021/11/20 08:09:29;;;;;;;6.50;3.28;;;17.50;81.20;;;;;;5082221;28;20035;-85
2021/11/20 08:11:55;;;;;;;4.90;2.72;;;18.30;76.30;;;;;;5083348;28;20032;-85
2021/11/20 08:14:21;;;;;;;5.28;2.90;;;18.90;73.50;;;;;;5100276;28;20043;-85
2021/11/20 08:16:48;;;;;;;5.07;2.60;;;19.60;71.40;;;;;;5078264;28;20038;-84
2021/11/20 08:19:14;;;;;;;7.10;2.58;;;20.30;68.10;;;;;;5095467;28;20044;-81
2021/11/20 08:21:40;;;;;;;6.07;2.60;;;20.50;65.50;;;;;;5095055;28;20028;-83
2021/11/20 08:24:07;;;;;;;4.95;2.40;;;20.70;64.90;;;;;;5076505;28;20063;-83
2021/11/20 08:26:36;;;;;;;5.03;2.15;;;20.90;62.70;;;;;;5076679;28;20093;-82
2021/11/20 08:29:12;;;;;;;3.88;2.15;;;20.60;61.80;;;;;;5076841;28;20046;-83
2021/11/20 08:31:44;;;;;;;4.90;2.58;;;20.40;61.80;;;;;;5076194;28;20081;-82
2021/11/20 08:34:12;;;;;;;5.05;2.40;;;20.40;61.60;;;;;;5076427;28;20024;-80
2021/11/20 08:36:39;;;;;;;5.68;2.60;;;20.50;61.60;;;;;;5094050;28;20489;-82
2021/11/20 08:39:05;;;;;;;6.13;2.50;;;20.40;60.50;;;;;;5094016;28;20032;-83
2021/11/20 08:41:31;;;;;;;7.53;2.58;;;19.90;60.50;;;;;;5098637;28;20466;-85
2021/11/20 08:44:00;;;;;;;4.78;2.70;;;19.50;60.90;;;;;;5096269;28;20040;-83
2021/11/20 08:46:26;;;;;;;5.97;2.60;;;19.20;61.30;;;;;;5094878;28;20382;-82
2021/11/20 08:48:55;;;;;;;5.47;2.83;;;19.00;61.70;;;;;;5094707;28;20021;-82
2021/11/20 08:51:23;;;;;;;5.65;2.42;;;19.00;62.00;;;;;;5075587;28;20028;-83
2021/11/20 08:53:50;;;;;;;7.60;2.35;;;18.80;61.10;;;;;;5078152;28;20089;-82
2021/11/20 08:56:17;;;;;;;6.28;2.35;;;18.20;60.50;;;;;;5098368;28;20020;-80
2021/11/20 08:58:43;;;;;;;6.65;3.75;;;17.90;62.10;;;;;;5079831;28;20024;-82
2021/11/20 09:01:14;;;;;;;5.68;2.50;;;18.40;62.80;;;;;;5079867;28;20028;-83
2021/11/20 09:03:52;;;;;;;7.18;2.40;;;18.70;61.50;;;;;;5098490;28;20024;-83
2021/11/20 09:06:24;;;;;;;5.10;2.30;;;18.50;60.20;;;;;;5089265;28;20086;-83
2021/11/20 09:09:40;;;;;;;6.03;2.60;;;18.10;60.70;;;;;;5089123;28;20091;-84
2021/11/20 09:12:06;;;;;;;;;;;18.10;62.00;;;;;;5042456;28;20040;-84
2021/11/20 09:14:38;;;;;;;5.72;2.33;;;18.00;61.70;;;;;;5079047;28;19903;-83
2021/11/20 09:17:04;;;;;;;5.85;2.72;;;18.00;61.30;;;;;;5097198;28;20024;-82
2021/11/20 09:19:34;;;;;;;7.40;2.83;;;18.00;61.90;;;;;;5097240;28;20028;-81
2021/11/20 09:22:03;;;;;;;5.28;2.65;;;18.00;61.10;;;;;;5097414;28;20111;-80
2021/11/20 09:24:31;;;;;;;5.10;2.50;;;17.80;61.00;;;;;;5078788;28;20034;-81
2021/11/20 09:26:58;;;;;;;6.90;3.08;;;17.30;61.60;;;;;;5096293;28;20038;-82
2021/11/20 09:29:27;;;;;;;6.72;3.10;;;16.90;62.60;;;;;;5078827;28;20024;-82
2021/11/20 09:31:54;;;;;;;7.25;2.80;;;16.50;63.70;;;;;;5077938;28;20036;-83
2021/11/20 09:34:22;;;;;;;7.13;2.90;;;16.30;64.90;;;;;;5095957;28;20052;-82
2021/11/20 09:36:52;;;;;;;6.43;3.20;;;16.00;65.50;;;;;;5096079;28;20024;-82
2021/11/20 09:39:20;;;;;;;5.97;2.90;;;15.70;66.40;;;;;;5078177;28;20428;-82
2021/11/20 09:42:12;;;;;;;5.53;2.80;;;15.80;67.60;;;;;;5078296;28;20533;-82
2021/11/20 09:44:42;;;;;;;7.03;2.92;;;16.30;66.40;;;;;;5082315;28;20075;-82
2021/11/20 09:47:28;;;;;;;7.32;2.47;;;16.80;66.30;;;;;;5096249;28;20102;-82
2021/11/20 09:49:56;;;;;;;;;;;17.80;64.50;;;;;;5078010;28;20024;-82
2021/11/20 09:52:22;;;;;;;10.07;3.10;;;18.40;63.30;;;;;;5095969;28;19939;-83
2021/11/20 09:54:51;;;;;;;8.35;3.40;;;18.80;62.00;;;;;;5078234;28;20021;-82
2021/11/20 09:57:22;;;;;;;6.20;2.38;;;18.80;59.60;;;;;;5086617;28;20091;-82
2021/11/20 09:59:50;;;;;;;7.97;2.88;;;18.50;59.90;;;;;;5080350;28;20149;-80
2021/11/20 10:02:51;;;;;;;7.05;3.00;;;18.40;60.10;;;;;;5085915;28;20061;-81
2021/11/20 10:05:24;;;;;;;6.03;2.65;;;18.10;59.60;;;;;;5084126;28;20126;-80
2021/11/20 10:08:05;;;;;;;5.55;3.05;;;17.80;60.30;;;;;;5079657;28;20039;-80
2021/11/20 10:10:41;;;;;;;8.52;2.97;;;17.70;60.60;;;;;;5096111;28;20027;-82
2021/11/20 10:13:20;;;;;;;6.38;2.65;;;17.60;60.60;;;;;;5096873;28;20024;-81
2021/11/20 10:16:25;;;;;;;10.75;3.05;;;17.60;60.40;;;;;;5077926;28;20032;-81
2021/11/20 10:19:06;;;;;;;7.57;3.00;;;17.80;60.30;;;;;;5076654;28;20055;-80
2021/11/20 10:21:34;;;;;;;7.30;2.70;;;17.70;60.00;;;;;;5096526;28;20089;-82
2021/11/20 10:24:21;;;;;;;8.13;2.72;;;17.70;60.20;;;;;;5077441;28;20032;-81
2021/11/20 10:27:25;;;;;;;5.35;2.50;;;17.40;59.40;;;;;;5096238;28;20077;-83
2021/11/20 10:30:18;;;;;;;7.35;2.70;;;17.20;60.50;;;;;;5078203;28;20024;-82
2021/11/20 10:32:55;;;;;;;8.38;2.90;;;17.90;59.90;;;;;;5095300;28;20380;-83
2021/11/20 10:35:33;;;;;;;7.70;2.90;;;18.00;58.00;;;;;;5095121;28;20107;-83
2021/11/20 10:38:11;;;;;;;7.65;3.03;;;17.50;58.70;;;;;;5094889;28;20420;-83
2021/11/20 10:40:39;;;;;;;6.95;2.67;;;17.00;58.80;;;;;;5076722;28;20028;-83
2021/11/20 10:43:14;;;;;;;9.80;3.35;;;16.50;59.50;;;;;;5076877;28;20036;-82
2021/11/20 10:46:25;;;;;;;6.78;2.97;;;16.10;60.70;;;;;;5077000;28;20024;-82
2021/11/20 10:49:09;;;;;;;5.78;2.75;;;16.20;61.50;;;;;;4976826;28;20030;-81
2021/11/20 10:51:43;;;;;;;7.72;4.72;;;16.50;60.90;;;;;;5093911;28;20101;-81
2021/11/20 10:54:24;;;;;;;9.97;5.60;;;16.80;59.80;;;;;;5095396;28;20028;-82
2021/11/20 10:57:14;;;;;;;7.47;2.88;;;16.90;59.40;;;;;;5081318;28;20027;-81
2021/11/20 10:59:55;;;;;;;10.10;3.33;;;16.90;59.20;;;;;;5087225;28;20097;-81
2021/11/20 11:02:54;;;;;;;8.13;2.97;;;16.60;58.90;;;;;;5079271;28;20028;-82
2021/11/20 11:05:40;;;;;;;8.20;3.10;;;16.10;59.50;;;;;;5077898;28;20032;-85
2021/11/20 11:08:19;;;;;;;10.93;2.78;;;15.90;60.50;;;;;;5077430;28;20085;-82
2021/11/20 11:10:49;;;;;;;7.60;2.50;;;16.30;60.60;;;;;;5096692;28;20024;-80
2021/11/20 11:13:24;;;;;;;7.93;2.72;;;16.70;59.30;;;;;;5080616;28;20032;-79
2021/11/20 11:16:13;;;;;;;8.37;2.87;;;17.00;58.50;;;;;;5076711;28;20031;-82
2021/11/20 11:18:42;;;;;;;6.43;2.40;;;17.20;57.40;;;;;;5094556;28;20059;-82
2021/11/20 11:21:36;;;;;;;8.45;2.85;;;16.90;57.00;;;;;;5094182;28;20401;-82
2021/11/20 11:24:46;;;;;;;8.50;3.22;;;16.50;58.00;;;;;;5076195;28;20032;-82
2021/11/20 11:27:23;;;;;;;6.97;2.65;;;16.60;58.30;;;;;;5094404;28;20028;-82
2021/11/20 11:30:09;;;;;;;7.07;2.72;;;16.70;58.60;;;;;;5076038;28;20036;-80
2021/11/20 11:32:38;;;;;;;9.25;3.58;;;16.80;57.80;;;;;;5094725;28;20036;-81
2021/11/20 11:35:29;;;;;;;6.75;3.38;;;16.50;57.50;;;;;;5094526;28;20486;-83
2021/11/20 11:38:14;;;;;;;7.72;3.00;;;16.10;58.10;;;;;;5094201;28;20049;-82
2021/11/20 11:40:40;;;;;;;7.53;2.50;;;15.70;58.30;;;;;;5094272;28;20032;-81
2021/11/20 11:43:37;;;;;;;7.20;2.80;;;15.70;58.90;;;;;;5093906;28;20031;-82
2021/11/20 11:46:27;;;;;;;6.20;2.20;;;16.20;57.60;;;;;;5076323;28;20148;-82
2021/11/20 11:48:56;;;;;;;8.00;2.33;;;16.80;55.90;;;;;;5076888;28;20075;-80
2021/11/20 11:51:40;;;;;;;6.90;2.55;;;17.30;53.30;;;;;;5076264;28;20119;-82
2021/11/20 11:54:12;;;;;;;7.45;2.53;;;17.40;52.70;;;;;;5085999;28;20024;-80
2021/11/20 11:56:40;;;;;;;6.50;2.50;;;17.00;52.70;;;;;;5085321;28;20051;-82
2021/11/20 11:59:24;;;;;;;10.02;2.63;;;16.70;53.50;;;;;;5076790;28;20386;-81
2021/11/20 12:01:53;;;;;;;7.28;2.70;;;16.60;54.10;;;;;;5076526;28;20441;-82
2021/11/20 12:04:30;;;;;;;8.32;2.97;;;16.80;53.80;;;;;;5075969;28;20029;-82
2021/11/20 12:07:07;;;;;;;7.40;3.08;;;17.20;53.00;;;;;;5076049;28;20025;-82
2021/11/20 12:09:37;;;;;;;7.65;2.55;;;16.80;52.60;;;;;;5093706;28;20378;-82
2021/11/20 12:12:14;;;;;;;6.28;2.70;;;16.40;53.50;;;;;;5094174;28;20462;-79
2021/11/20 12:14:44;;;;;;;8.82;3.17;;;15.80;54.60;;;;;;5075967;28;20028;-80
2021/11/20 12:17:43;;;;;;;9.85;3.03;;;15.50;55.70;;;;;;5093890;28;20032;-81
2021/11/20 12:20:25;;;;;;;7.85;3.00;;;15.40;56.60;;;;;;5075470;28;20035;-83
2021/11/20 12:23:00;;;;;;;8.63;3.30;;;15.50;57.20;;;;;;5075642;28;20069;-81
2021/11/20 12:25:41;;;;;;;;;;;15.70;56.80;;;;;;5093823;28;20534;-81
2021/11/20 12:28:24;;;;;;;6.93;2.53;;;15.50;57.00;;;;;;5097730;28;19943;-80
2021/11/20 12:30:54;;;;;;;7.93;2.40;;;15.20;57.30;;;;;;5082585;28;20545;-81
2021/11/20 12:33:51;;;;;;;5.78;2.40;;;14.80;57.90;;;;;;5079417;28;20025;-82
2021/11/20 12:36:32;;;;;;;8.50;2.75;;;14.60;58.50;;;;;;5079710;28;20115;-80
2021/11/20 12:39:35;;;;;;;7.68;2.80;;;14.30;59.10;;;;;;5079629;28;20024;-80
2021/11/20 12:42:13;;;;;;;7.60;2.30;;;14.20;59.10;;;;;;5079963;28;20470;-81
2021/11/20 12:44:51;;;;;;;7.85;2.33;;;14.10;58.40;;;;;;5080177;28;20032;-79
2021/11/20 12:47:41;;;;;;;8.10;2.50;;;14.10;57.60;;;;;;5098735;28;20082;-82
2021/11/20 12:50:24;;;;;;;6.80;2.60;;;13.90;57.40;;;;;;5089910;28;20489;-80
2021/11/20 12:53:26;;;;;;;6.57;3.00;;;13.80;57.90;;;;;;5088476;28;20028;-79
2021/11/20 12:56:16;;;;;;;7.40;3.15;;;13.60;58.70;;;;;;5083367;28;20474;-80
2021/11/20 12:58:48;;;;;;;9.40;3.03;;;13.50;59.80;;;;;;5080618;28;20027;-79
2021/11/20 13:01:19;;;;;;;12.45;3.95;;;13.40;60.30;;;;;;5078953;28;20507;-80
2021/11/20 13:04:12;;;;;;;10.70;3.20;;;13.50;60.80;;;;;;5098345;28;20036;-80
2021/11/20 13:06:52;;;;;;;11.52;3.92;;;13.40;60.80;;;;;;5098234;28;20544;-80
2021/11/20 13:09:30;;;;;;;9.18;2.97;;;13.40;61.00;;;;;;5079654;28;20027;-80
2021/11/20 13:12:16;;;;;;;8.82;2.83;;;13.40;60.60;;;;;;5080224;28;20385;-80